Time;durP1;ratioP1;P1;durP2;ratioP2;P2;SDS_P1;SDS_P2;PMS_P1;PMS_P2;Temp;Humidity;BMP_temperature;BMP_pressure;BME280_temperature;BME280_humidity;BME280_pressure;Samples;Min_cycle;Max_cycle;Signal;HPM_P1;HPM_P2
2023/04/13 00:07:49;;;;;;;1999.90;999.90;;;7.20;99.90;;;;;;6712854;88;20204;-74
2023/04/13 00:17:49;;;;;;;1999.90;999.90;;;7.50;99.90;;;;;;6726024;88;20242;-75
2023/04/13 00:27:53;;;;;;;1999.90;999.90;;;7.60;99.90;;;;;;6723768;88;20230;-73
2023/04/13 00:37:53;;;;;;;1999.90;999.90;;;7.60;99.90;;;;;;6733778;88;20188;-75
2023/04/13 00:47:56;;;;;;;1999.90;999.90;;;7.80;99.90;;;;;;6709688;88;20207;-74
2023/04/13 00:57:58;;;;;;;1999.90;999.90;;;7.80;99.90;;;;;;6707924;88;20211;-75
2023/04/13 01:08:07;;;;;;;1999.90;999.90;;;7.90;99.90;;;;;;6735663;88;20203;-76
2023/04/13 01:18:10;;;;;;;1999.90;999.90;;;7.80;99.90;;;;;;6736843;88;20198;-74
2023/04/13 01:28:14;;;;;;;1999.90;999.90;;;7.80;99.90;;;;;;6736254;88;20247;-75
2023/04/13 01:38:23;;;;;;;1999.90;999.90;;;7.70;99.90;;;;;;6728595;88;20757;-74
2023/04/13 01:48:47;;;;;;;1999.90;999.90;;;7.60;99.90;;;;;;6713651;88;20201;-75
2023/04/13 01:58:50;;;;;;;1999.90;999.90;;;7.60;99.90;;;;;;6713025;88;20217;-75
2023/04/13 02:08:52;;;;;;;1999.90;999.90;;;7.60;99.90;;;;;;6713050;88;20233;-75
2023/04/13 02:18:52;;;;;;;1999.90;999.90;;;7.70;99.90;;;;;;6736171;88;20271;-76
2023/04/13 02:28:53;;;;;;;1999.90;999.90;;;7.60;99.90;;;;;;6731447;88;20339;-75
2023/04/13 02:38:53;;;;;;;1999.90;999.90;;;7.50;99.90;;;;;;6734509;88;20205;-75
2023/04/13 02:48:55;;;;;;;1999.90;999.90;;;7.60;99.90;;;;;;6718866;88;20209;-73
2023/04/13 02:58:57;;;;;;;1999.90;999.90;;;7.50;99.90;;;;;;6731327;88;20192;-74
2023/04/13 03:08:58;;;;;;;1999.90;999.90;;;7.50;99.90;;;;;;6729558;88;20204;-74
2023/04/13 03:18:58;;;;;;;1999.90;999.90;;;7.60;99.90;;;;;;6712598;88;20308;-74
2023/04/13 03:28:59;;;;;;;1999.90;999.90;;;7.60;99.90;;;;;;6726334;88;20761;-74
2023/04/13 03:39:00;;;;;;;1999.90;999.90;;;7.70;99.90;;;;;;6714421;88;20251;-73
2023/04/13 03:49:03;;;;;;;1999.90;999.90;;;7.80;99.90;;;;;;6736596;88;20233;-74
2023/04/13 03:59:03;;;;;;;1999.90;999.90;;;7.90;99.90;;;;;;6722951;88;20310;-75
2023/04/13 04:09:04;;;;;;;1999.90;999.90;;;7.90;99.90;;;;;;6717850;88;20319;-74
2023/04/13 04:19:04;;;;;;;1999.90;999.90;;;7.90;99.90;;;;;;6716976;88;20319;-74
2023/04/13 04:29:08;;;;;;;1999.90;999.90;;;7.90;99.90;;;;;;6682847;88;20209;-74
2023/04/13 04:39:09;;;;;;;1999.90;999.90;;;7.90;99.90;;;;;;6639470;88;20193;-74
2023/04/13 04:49:09;;;;;;;1999.90;999.90;;;7.90;99.90;;;;;;6652302;88;20214;-73
2023/04/13 04:59:10;;;;;;;1999.90;999.90;;;8.00;99.90;;;;;;6640079;88;20197;-73
2023/04/13 05:09:11;;;;;;;1999.90;999.90;;;7.90;99.90;;;;;;6637614;88;20682;-75
2023/04/13 05:19:14;;;;;;;1999.90;999.90;;;7.90;99.90;;;;;;6658506;88;20228;-75
2023/04/13 05:29:15;;;;;;;1999.90;999.90;;;8.00;99.90;;;;;;6643094;89;20210;-75
2023/04/13 05:39:15;;;;;;;1999.90;999.90;;;8.00;99.90;;;;;;6679664;88;20205;-75
2023/04/13 05:49:16;;;;;;;1999.90;999.90;;;8.20;99.90;;;;;;6654391;88;20413;-75
2023/04/13 05:59:17;;;;;;;1999.90;999.90;;;8.20;99.90;;;;;;6638191;88;20184;-75
2023/04/13 06:09:18;;;;;;;1999.90;999.90;;;8.20;99.90;;;;;;6650962;88;20687;-74
2023/04/13 06:19:19;;;;;;;1999.90;999.90;;;8.20;99.90;;;;;;6659483;88;20197;-76
2023/04/13 06:29:20;;;;;;;1999.90;999.90;;;8.30;99.90;;;;;;6683588;88;20211;-76
2023/04/13 06:39:20;;;;;;;1999.90;999.90;;;8.30;99.90;;;;;;6734505;88;20208;-74
2023/04/13 06:49:21;;;;;;;1999.90;999.90;;;7.90;99.90;;;;;;6736713;88;20262;-75
2023/04/13 06:59:22;;;;;;;1999.90;999.90;;;7.90;99.90;;;;;;6715014;88;20229;-76
2023/04/13 07:09:22;;;;;;;1999.90;999.90;;;8.00;99.90;;;;;;6716654;88;20212;-75
2023/04/13 07:19:28;;;;;;;1999.90;999.90;;;8.10;99.90;;;;;;6728492;88;20191;-75
2023/04/13 07:29:29;;;;;;;1999.90;999.90;;;8.10;99.90;;;;;;6702982;88;20503;-75
2023/04/13 07:39:29;;;;;;;1999.90;999.90;;;8.30;99.90;;;;;;6635330;89;20334;-75
2023/04/13 07:49:30;;;;;;;1999.90;999.90;;;8.70;99.90;;;;;;6634711;89;20217;-75
2023/04/13 07:59:30;;;;;;;1999.90;999.90;;;9.60;99.90;;;;;;6649875;89;20221;-75
2023/04/13 08:09:34;;;;;;;1999.90;999.90;;;9.30;99.90;;;;;;6662389;89;20183;-75
2023/04/13 08:19:35;;;;;;;1999.90;999.90;;;10.10;99.90;;;;;;6672674;88;20196;-74
2023/04/13 08:29:36;;;;;;;1999.90;999.90;;;10.00;99.90;;;;;;6684438;88;20986;-75
2023/04/13 08:39:36;;;;;;;1999.90;999.90;;;10.00;99.90;;;;;;6739859;88;20577;-74
2023/04/13 08:49:39;;;;;;;1999.90;999.90;;;9.70;99.90;;;;;;6729009;88;20669;-75
2023/04/13 08:59:42;;;;;;;1999.90;999.90;;;9.80;99.90;;;;;;6732143;88;20934;-75
2023/04/13 09:09:44;;;;;;;1999.90;999.90;;;10.50;99.90;;;;;;6730120;88;20239;-75
2023/04/13 09:19:45;;;;;;;1999.90;999.90;;;10.90;99.90;;;;;;6731129;88;20219;-75
2023/04/13 09:29:54;;;;;;;1999.90;999.90;;;10.90;99.90;;;;;;6728509;88;20701;-75
2023/04/13 09:39:54;;;;;;;1999.90;999.90;;;10.50;99.90;;;;;;6730683;88;20186;-75
2023/04/13 09:49:55;;;;;;;1999.90;999.90;;;10.30;99.90;;;;;;6731983;88;20296;-75
2023/04/13 09:59:59;;;;;;;1999.90;999.90;;;9.70;99.90;;;;;;6734328;88;20185;-75
2023/04/13 10:10:00;;;;;;;1999.90;999.90;;;10.60;99.90;;;;;;6730573;88;20750;-75
2023/04/13 10:20:09;;;;;;;1999.90;999.90;;;12.20;99.90;;;;;;6731312;88;20207;-75
2023/04/13 10:30:16;;;;;;;1999.90;999.90;;;12.50;99.90;;;;;;6729338;88;20214;-75
2023/04/13 10:40:17;;;;;;;1999.90;999.90;;;12.10;99.90;;;;;;6729188;88;20221;-75
2023/04/13 10:50:21;;;;;;;1999.90;999.90;;;12.40;99.90;;;;;;6731528;88;20289;-75
2023/04/13 11:00:24;;;;;;;1999.90;999.90;;;12.80;99.90;;;;;;6730691;88;20210;-76
2023/04/13 11:10:26;;;;;;;1999.90;999.90;;;13.20;99.90;;;;;;6732036;88;20182;-75
2023/04/13 11:20:31;;;;;;;1999.90;999.90;;;12.70;99.90;;;;;;6733338;88;20189;-75
2023/04/13 11:30:32;;;;;;;1999.90;999.90;;;12.00;99.90;;;;;;6730216;88;20231;-75
2023/04/13 11:40:32;;;;;;;1999.90;999.90;;;13.90;99.90;;;;;;6732778;88;20198;-75
2023/04/13 11:50:33;;;;;;;1999.90;999.90;;;13.80;99.90;;;;;;6731510;88;20670;-75
2023/04/13 12:00:37;;;;;;;1999.90;999.90;;;13.40;99.90;;;;;;6732012;88;20327;-76
2023/04/13 12:10:38;;;;;;;1999.90;999.90;;;13.60;99.90;;;;;;6732194;88;20219;-76
2023/04/13 12:20:45;;;;;;;1999.90;999.90;;;14.50;99.90;;;;;;6731940;88;20165;-75
2023/04/13 12:30:46;;;;;;;1999.90;999.90;;;15.30;97.90;;;;;;6731220;88;20372;-76
2023/04/13 12:40:46;;;;;;;1999.90;999.90;;;16.90;95.20;;;;;;6730571;88;20575;-76
2023/04/13 12:50:47;;;;;;;1999.90;999.90;;;17.20;95.70;;;;;;6726766;88;20193;-75
2023/04/13 13:00:48;;;;;;;1999.90;999.90;;;15.80;95.00;;;;;;6738468;88;20191;-77
2023/04/13 13:10:48;;;;;;;1999.90;999.90;;;15.00;97.90;;;;;;6726726;88;20219;-75
2023/04/13 13:20:52;;;;;;;1999.90;999.90;;;15.40;96.60;;;;;;6728258;88;20193;-75
2023/04/13 13:30:52;;;;;;;1999.90;999.90;;;15.00;97.20;;;;;;6740657;88;20213;-76
2023/04/13 13:40:53;;;;;;;1999.90;999.90;;;16.40;95.50;;;;;;6733200;88;20214;-75
2023/04/13 13:50:54;;;;;;;1999.90;999.90;;;16.00;95.60;;;;;;6732068;88;20184;-76
2023/04/13 14:00:55;;;;;;;1999.90;999.90;;;16.00;95.40;;;;;;6732179;88;20793;-75
2023/04/13 14:10:55;;;;;;;1999.90;999.90;;;15.60;94.10;;;;;;6727447;88;20335;-76
2023/04/13 14:20:59;;;;;;;1999.90;999.90;;;16.00;93.70;;;;;;6730838;88;20185;-75
2023/04/13 14:31:00;;;;;;;1999.90;999.90;;;17.10;94.10;;;;;;6731484;88;20178;-76
2023/04/13 14:41:00;;;;;;;1999.90;999.90;;;16.30;95.10;;;;;;6716606;88;20181;-74
2023/04/13 14:51:01;;;;;;;1999.90;999.90;;;16.10;91.80;;;;;;6729294;88;20278;-74
2023/04/13 15:01:03;;;;;;;1999.90;999.90;;;15.50;92.90;;;;;;6732330;88;20189;-74
2023/04/13 15:11:04;;;;;;;1999.90;999.90;;;16.20;93.30;;;;;;6739725;88;20682;-75
2023/04/13 15:21:05;;;;;;;1999.90;999.90;;;16.20;93.00;;;;;;6737349;88;20193;-76
2023/04/13 15:31:05;;;;;;;1999.90;999.90;;;16.00;91.70;;;;;;6734696;88;20711;-75
2023/04/13 15:41:10;;;;;;;1999.90;999.90;;;16.90;91.40;;;;;;6734764;88;20210;-75
2023/04/13 15:51:11;;;;;;;1999.90;999.90;;;16.40;91.60;;;;;;6734604;88;20215;-74
2023/04/13 16:01:12;;;;;;;1999.90;999.90;;;15.60;91.40;;;;;;6736736;88;20223;-75
2023/04/13 16:11:12;;;;;;;1999.90;999.90;;;14.80;90.30;;;;;;6737800;88;20225;-75
2023/04/13 16:21:17;;;;;;;1999.90;999.90;;;15.20;90.40;;;;;;6734143;88;20428;-76
2023/04/13 16:31:18;;;;;;;1999.90;999.90;;;15.10;91.40;;;;;;6731355;88;20189;-77
2023/04/13 16:41:19;;;;;;;1999.90;999.90;;;15.40;90.80;;;;;;6730858;88;20330;-77
2023/04/13 16:51:19;;;;;;;1999.90;999.90;;;15.10;92.30;;;;;;6731184;88;20614;-77
2023/04/13 17:01:20;;;;;;;1999.90;999.90;;;14.70;93.30;;;;;;6725150;88;20653;-77
2023/04/13 17:11:22;;;;;;;1999.90;999.90;;;14.90;92.00;;;;;;6728168;88;20293;-77
2023/04/13 17:21:22;;;;;;;1999.90;999.90;;;14.90;91.00;;;;;;6730982;88;20212;-77
2023/04/13 17:31:26;;;;;;;1999.90;999.90;;;14.30;92.50;;;;;;6728195;88;20843;-77
2023/04/13 17:41:26;;;;;;;1999.90;999.90;;;14.10;92.40;;;;;;6730432;88;20196;-75
2023/04/13 17:51:28;;;;;;;1999.90;999.90;;;13.70;92.60;;;;;;6730150;88;20625;-75
2023/04/13 18:01:29;;;;;;;1999.90;999.90;;;13.40;94.20;;;;;;6731329;88;20314;-76
2023/04/13 18:11:30;;;;;;;1999.90;999.90;;;13.20;93.40;;;;;;6728654;88;20187;-76
2023/04/13 18:21:31;;;;;;;1999.90;999.90;;;12.70;94.10;;;;;;6736460;88;20636;-76
2023/04/13 18:31:31;;;;;;;1999.90;999.90;;;12.40;94.30;;;;;;6735390;88;20193;-76
2023/04/13 18:41:32;;;;;;;1999.90;999.90;;;12.10;96.20;;;;;;6742895;88;20185;-76
2023/04/13 18:51:33;;;;;;;1999.90;999.90;;;11.80;98.00;;;;;;6740990;88;20247;-76
2023/04/13 19:01:33;;;;;;;1999.90;999.90;;;11.50;97.90;;;;;;6733262;88;20192;-76
2023/04/13 19:11:45;;;;;;;1999.90;999.90;;;11.40;97.90;;;;;;6732417;88;21068;-77
2023/04/13 19:21:46;;;;;;;1999.90;999.90;;;11.10;99.90;;;;;;6734391;88;20179;-76
2023/04/13 19:31:47;;;;;;;1999.90;999.90;;;10.60;99.90;;;;;;6733409;88;20373;-75
2023/04/13 19:41:47;;;;;;;1999.90;999.90;;;9.20;99.90;;;;;;6737798;88;20192;-75
2023/04/13 19:51:48;;;;;;;1999.90;999.90;;;8.10;99.90;;;;;;6735099;88;20658;-76
2023/04/13 20:01:48;;;;;;;1999.90;999.90;;;7.80;99.90;;;;;;6736211;88;20216;-76
2023/04/13 20:11:49;;;;;;;1999.90;999.90;;;7.50;99.90;;;;;;6734960;88;20205;-76
2023/04/13 20:21:50;;;;;;;1999.90;999.90;;;7.30;99.90;;;;;;6733835;88;20197;-76
2023/04/13 20:31:50;;;;;;;1999.90;999.90;;;7.30;99.90;;;;;;6733801;88;20614;-76
2023/04/13 20:41:53;;;;;;;1999.90;999.90;;;7.30;99.90;;;;;;6732675;88;20221;-75
2023/04/13 20:51:56;;;;;;;1999.90;999.90;;;7.30;99.90;;;;;;6735217;88;20635;-77
2023/04/13 21:01:57;;;;;;;1999.90;999.90;;;7.20;99.90;;;;;;6733699;88;20660;-76
2023/04/13 21:11:57;;;;;;;1999.90;999.90;;;7.20;99.90;;;;;;6731921;88;20589;-75
2023/04/13 21:21:58;;;;;;;1999.90;999.90;;;6.90;99.90;;;;;;6731663;88;20610;-76
2023/04/13 21:32:00;;;;;;;1999.90;999.90;;;6.70;99.90;;;;;;6732603;88;20189;-77
2023/04/13 21:42:01;;;;;;;1999.90;999.90;;;6.80;99.90;;;;;;6733706;88;20551;-75
2023/04/13 21:52:02;;;;;;;1999.90;999.90;;;6.70;99.90;;;;;;6734658;88;20225;-77
2023/04/13 22:02:02;;;;;;;1999.90;999.90;;;7.10;99.90;;;;;;6734074;88;20234;-76
2023/04/13 22:12:03;;;;;;;1999.90;999.90;;;6.60;99.90;;;;;;6745619;88;20868;-76
2023/04/13 22:22:04;;;;;;;1999.90;999.90;;;6.50;99.90;;;;;;6736870;88;20319;-77
2023/04/13 22:32:04;;;;;;;1999.90;999.90;;;6.30;99.90;;;;;;6736033;88;20514;-77
2023/04/13 22:42:05;;;;;;;1999.90;999.90;;;6.20;99.90;;;;;;6732791;88;20180;-76
2023/04/13 22:52:05;;;;;;;1999.90;999.90;;;6.10;99.90;;;;;;6735183;88;20314;-76
2023/04/13 23:02:06;;;;;;;1999.90;999.90;;;6.10;99.90;;;;;;6733592;88;20188;-76
2023/04/13 23:12:07;;;;;;;1999.90;999.90;;;6.10;99.90;;;;;;6735893;88;20263;-75
2023/04/13 23:22:07;;;;;;;1999.90;999.90;;;6.20;99.90;;;;;;6741764;88;20193;-74
2023/04/13 23:32:08;;;;;;;1999.90;999.90;;;6.40;99.90;;;;;;6736978;88;20223;-76
2023/04/13 23:42:08;;;;;;;1999.90;999.90;;;6.10;99.90;;;;;;6735021;88;20189;-76
2023/04/13 23:52:09;;;;;;;1999.90;999.90;;;6.10;99.90;;;;;;6734928;88;20621;-76
